Unlu-5 — TCON5 — position and weather

sailwx.info

Track history (hours):
 
Tides and Currents Weather Stations Pressure Air Temp Water Temp Dewpoint Dewpoint Depression Visibility Wind Speed Wind Dir Waves Ship Positions

Unlu-5

Last reported at 2017-Feb-24 05:33 UTC. Time now 2017-Feb-24 06:08 UTC.
Position N 37°36' W 009°11'.

Length 99 m; draft 3.7 m.

Type: Cargo ship. MMSI: 271000854.

Date/timePositionNaut miles runAvg speedWind from/ knotsBaromVisibWave heightAir tempDewpointWater temp
2017-Feb-24 05:33N 37°36' W 009°11'5 5.2
2017-Feb-24 04:32N 37°30' W 009°13'20 5.0
2017-Feb-24 00:30N 37°11' W 009°18'  
2017-Feb-20 06:31N 35°54' W 005°54'8 8.1
2017-Feb-20 05:32N 35°56' W 005°44'8 7.9
2017-Feb-20 04:33N 35°57' W 005°35'7 7.0
2017-Feb-20 03:33N 35°60' W 005°27'6 6.4
2017-Feb-20 02:33N 36°02' W 005°19'8 8.1
2017-Feb-20 01:33N 36°04' W 005°10'8 8.0
2017-Feb-20 00:30N 36°06' W 004°60'211 7.6
2017-Feb-18 20:33N 37°21' W 000°53'18 8.5
2017-Feb-18 18:27N 37°33' W 000°36'7 7.9
2017-Feb-18 17:33N 37°38' W 000°30'148 7.8
2017-Feb-17 22:33N 39°41' E 001°15'8 7.5
2017-Feb-17 21:33N 39°47' E 001°21'8 7.7
2017-Feb-17 20:33N 39°53' E 001°26'8 7.7
2017-Feb-17 19:33N 39°60' E 001°32'7 7.4
2017-Feb-17 18:33N 40°06' E 001°38'8 7.5
2017-Feb-17 17:33N 40°12' E 001°43'7 7.4
2017-Feb-17 16:33N 40°18' E 001°49'8 7.5
2017-Feb-17 15:33N 40°24' E 001°55'8 7.8
2017-Feb-17 14:33N 40°31' E 002°00'8 7.7
2017-Feb-17 13:33N 40°37' E 002°06'8 8.2
2017-Feb-17 12:33N 40°43' E 002°13'8 8.4
2017-Feb-17 11:33N 40°50' E 002°20'9 8.6
2017-Feb-17 10:33N 40°56' E 002°28'9 8.6
2017-Feb-17 09:33N 41°04' E 002°34'8 8.1
2017-Feb-17 08:33N 41°11' E 002°39'8 7.7
2017-Feb-17 07:32N 41°18' E 002°44'  
Track history (hours):
 
Tides and Currents Weather Stations Pressure Air Temp Water Temp Dewpoint Dewpoint Depression Visibility Wind Speed Wind Dir Waves Ship Positions

Unlu-5

Last reported at 2017-Feb-24 05:33 UTC. Time now 2017-Feb-24 06:08 UTC.
Position N 37°36' W 009°11'.

Length 99 m; draft 3.7 m.

Type: Cargo ship. MMSI: 271000854.

Date/timePositionNaut miles runAvg speedWind from/ knotsBaromVisibWave heightAir tempDewpointWater temp
2017-Feb-24 05:33N 37°36' W 009°11'5 5.2
2017-Feb-24 04:32N 37°30' W 009°13'20 5.0
2017-Feb-24 00:30N 37°11' W 009°18'  
2017-Feb-20 06:31N 35°54' W 005°54'8 8.1
2017-Feb-20 05:32N 35°56' W 005°44'8 7.9
2017-Feb-20 04:33N 35°57' W 005°35'7 7.0
2017-Feb-20 03:33N 35°60' W 005°27'6 6.4
2017-Feb-20 02:33N 36°02' W 005°19'8 8.1
2017-Feb-20 01:33N 36°04' W 005°10'8 8.0
2017-Feb-20 00:30N 36°06' W 004°60'211 7.6
2017-Feb-18 20:33N 37°21' W 000°53'18 8.5
2017-Feb-18 18:27N 37°33' W 000°36'7 7.9
2017-Feb-18 17:33N 37°38' W 000°30'148 7.8
2017-Feb-17 22:33N 39°41' E 001°15'8 7.5
2017-Feb-17 21:33N 39°47' E 001°21'8 7.7
2017-Feb-17 20:33N 39°53' E 001°26'8 7.7
2017-Feb-17 19:33N 39°60' E 001°32'7 7.4
2017-Feb-17 18:33N 40°06' E 001°38'8 7.5
2017-Feb-17 17:33N 40°12' E 001°43'7 7.4
2017-Feb-17 16:33N 40°18' E 001°49'8 7.5
2017-Feb-17 15:33N 40°24' E 001°55'8 7.8
2017-Feb-17 14:33N 40°31' E 002°00'8 7.7
2017-Feb-17 13:33N 40°37' E 002°06'8 8.2
2017-Feb-17 12:33N 40°43' E 002°13'8 8.4
2017-Feb-17 11:33N 40°50' E 002°20'9 8.6
2017-Feb-17 10:33N 40°56' E 002°28'9 8.6
2017-Feb-17 09:33N 41°04' E 002°34'8 8.1
2017-Feb-17 08:33N 41°11' E 002°39'8 7.7
2017-Feb-17 07:32N 41°18' E 002°44'  

Dump ship's entire track history